Time;durP1;ratioP1;P1;durP2;ratioP2;P2;SDS_P1;SDS_P2;PMS_P1;PMS_P2;Temp;Humidity;BMP_temperature;BMP_pressure;BME280_temperature;BME280_humidity;BME280_pressure;Samples;Min_cycle;Max_cycle;Signal;HPM_P1;HPM_P2
2023/01/19 00:02:22;;;;;;;21.30;12.50;;;3.70;99.90;;;;;;5035659;28;20029;-80
2023/01/19 00:04:48;;;;;;;23.48;14.02;;;3.70;99.90;;;;;;5035568;28;20033;-80
2023/01/19 00:07:14;;;;;;;20.75;13.55;;;3.70;99.90;;;;;;5035538;28;20029;-79
2023/01/19 00:09:40;;;;;;;18.80;13.32;;;3.70;99.90;;;;;;5036783;28;20124;-80
2023/01/19 00:12:06;;;;;;;23.40;13.35;;;3.80;99.90;;;;;;5036703;28;20157;-79
2023/01/19 00:14:32;;;;;;;21.27;12.80;;;3.80;99.90;;;;;;5036710;28;20065;-79
2023/01/19 00:16:57;;;;;;;25.55;12.93;;;3.80;99.90;;;;;;5018869;28;20034;-79
2023/01/19 00:19:23;;;;;;;22.73;13.25;;;3.80;99.90;;;;;;5036538;28;20159;-80
2023/01/19 00:21:49;;;;;;;24.83;13.63;;;3.90;99.90;;;;;;5018660;28;20470;-80
2023/01/19 00:24:14;;;;;;;21.40;13.65;;;3.90;99.90;;;;;;5035357;28;20030;-79
2023/01/19 00:26:41;;;;;;;18.33;12.73;;;3.90;99.90;;;;;;5035494;28;20040;-80
2023/01/19 00:29:11;;;;;;;24.42;14.27;;;3.90;99.90;;;;;;5034885;28;20184;-80
2023/01/19 00:31:37;;;;;;;24.52;14.27;;;4.00;99.90;;;;;;5019185;28;20208;-80
2023/01/19 00:34:04;;;;;;;25.65;15.95;;;3.90;99.90;;;;;;5036041;28;20541;-79
2023/01/19 00:36:29;;;;;;;23.38;14.55;;;3.90;99.90;;;;;;5018671;28;20064;-80
2023/01/19 00:38:55;;;;;;;21.77;14.50;;;3.90;99.90;;;;;;5019061;28;20053;-80
2023/01/19 00:42:38;;;;;;;24.13;14.35;;;3.80;99.90;;;;;;5036427;28;20132;-80
2023/01/19 00:44:07;;;;;;;22.52;13.82;;;3.90;99.90;;;;;;5036126;28;20382;-80
2023/01/19 00:46:32;;;;;;;24.60;14.55;;;3.90;99.90;;;;;;5034473;28;20058;-80
2023/01/19 00:48:58;;;;;;;22.02;14.63;;;3.90;99.90;;;;;;5002800;28;20033;-80
2023/01/19 00:51:24;;;;;;;24.85;14.93;;;3.90;99.90;;;;;;5018393;28;20037;-80
2023/01/19 00:53:50;;;;;;;20.67;14.35;;;3.80;99.90;;;;;;5018299;28;20034;-80
2023/01/19 00:56:16;;;;;;;22.88;14.18;;;3.80;99.90;;;;;;5034603;28;20026;-80
2023/01/19 00:58:43;;;;;;;22.77;14.63;;;3.80;99.90;;;;;;5034295;28;20026;-80
2023/01/19 01:01:09;;;;;;;21.80;14.32;;;3.80;99.90;;;;;;5018285;28;20033;-79
2023/01/19 01:03:35;;;;;;;23.08;15.15;;;3.80;99.90;;;;;;5034937;28;20473;-81
2023/01/19 01:06:02;;;;;;;23.10;14.65;;;3.80;99.90;;;;;;5033317;28;20037;-80
2023/01/19 01:08:28;;;;;;;22.52;14.55;;;3.80;99.90;;;;;;5018967;28;20134;-79
2023/01/19 01:10:55;;;;;;;24.98;14.98;;;3.80;99.90;;;;;;5036158;28;20057;-80
2023/01/19 01:13:20;;;;;;;23.55;14.65;;;3.80;99.90;;;;;;5018568;28;20029;-80
2023/01/19 01:15:52;;;;;;;23.83;13.73;;;3.80;99.90;;;;;;5034959;28;20426;-79
2023/01/19 01:18:19;;;;;;;18.60;13.07;;;3.80;99.90;;;;;;5034213;28;20508;-79
2023/01/19 01:20:44;;;;;;;20.40;13.10;;;3.70;99.90;;;;;;5034168;28;20470;-80
2023/01/19 01:23:10;;;;;;;26.38;13.98;;;3.70;99.90;;;;;;5017760;28;20109;-79
2023/01/19 01:25:37;;;;;;;19.50;12.77;;;3.70;99.90;;;;;;5034118;28;20065;-79
2023/01/19 01:28:05;;;;;;;19.42;13.75;;;3.70;99.90;;;;;;5034124;28;20034;-79
2023/01/19 01:30:31;;;;;;;22.90;13.52;;;3.60;99.90;;;;;;5017695;28;20029;-79
2023/01/19 01:32:57;;;;;;;23.77;13.65;;;3.60;99.90;;;;;;5034930;28;20083;-79
2023/01/19 01:35:23;;;;;;;20.40;12.18;;;3.60;99.90;;;;;;5001099;28;20033;-80
2023/01/19 01:37:48;;;;;;;22.33;12.68;;;3.60;99.90;;;;;;5033583;28;20474;-80
2023/01/19 01:40:16;;;;;;;21.55;12.48;;;3.60;99.90;;;;;;5034936;28;20037;-79
2023/01/19 01:42:42;;;;;;;17.35;12.50;;;3.60;99.90;;;;;;5017351;28;20367;-80
2023/01/19 01:45:33;;;;;;;18.27;10.50;;;3.60;99.90;;;;;;5017639;28;20425;-80
2023/01/19 01:48:17;;;;;;;20.25;11.68;;;3.60;99.90;;;;;;5033672;28;20033;-79
2023/01/19 01:53:35;;;;;;;20.30;11.73;;;3.60;99.90;;;;;;5035176;28;20079;-79
2023/01/19 01:56:03;;;;;;;20.90;12.05;;;3.60;99.90;;;;;;5033483;28;20030;-81
2023/01/19 01:58:31;;;;;;;20.10;11.85;;;3.60;99.90;;;;;;5033396;28;20489;-80
2023/01/19 02:03:40;;;;;;;22.52;12.73;;;3.60;99.90;;;;;;5033912;28;20043;-83
2023/01/19 02:06:07;;;;;;;18.73;11.35;;;3.50;99.90;;;;;;5033873;28;20029;-80
2023/01/19 02:14:22;;;;;;;17.42;11.07;;;3.40;99.90;;;;;;5034511;28;20489;-80
2023/01/19 02:16:48;;;;;;;16.55;11.13;;;3.40;99.90;;;;;;5032910;28;20034;-80
2023/01/19 02:19:21;;;;;;;18.42;11.70;;;3.30;99.90;;;;;;5017082;28;20091;-78
2023/01/19 02:22:06;;;;;;;14.35;10.73;;;3.40;99.90;;;;;;5033600;28;20464;-79
2023/01/19 02:24:32;;;;;;;14.23;10.55;;;3.20;99.90;;;;;;5034574;28;20034;-78
2023/01/19 02:26:58;;;;;;;16.38;11.23;;;3.10;99.90;;;;;;5033022;28;20112;-79
2023/01/19 02:29:26;;;;;;;13.82;10.52;;;3.10;99.90;;;;;;5034492;28;20038;-79
2023/01/19 02:31:54;;;;;;;16.70;12.10;;;3.00;99.90;;;;;;5016494;28;20053;-78
2023/01/19 02:34:21;;;;;;;16.80;11.13;;;2.90;99.90;;;;;;5032829;28;20413;-79
2023/01/19 02:36:49;;;;;;;15.20;10.77;;;2.80;99.90;;;;;;5034038;28;20036;-78
2023/01/19 02:39:18;;;;;;;18.65;11.48;;;2.70;99.90;;;;;;5033948;28;20025;-79
2023/01/19 02:41:50;;;;;;;16.92;11.82;;;2.70;99.90;;;;;;5033160;28;20080;-79
2023/01/19 02:44:18;;;;;;;15.63;11.68;;;2.70;99.90;;;;;;5034074;28;20093;-79
2023/01/19 02:46:44;;;;;;;15.88;11.65;;;2.60;99.90;;;;;;5032872;28;20512;-79
2023/01/19 02:49:10;;;;;;;16.23;11.57;;;2.60;99.90;;;;;;5032485;28;20029;-78
2023/01/19 02:51:35;;;;;;;15.60;11.68;;;2.60;99.90;;;;;;5032605;28;20029;-79
2023/01/19 02:54:04;;;;;;;14.38;10.82;;;2.60;99.90;;;;;;5016461;28;20373;-78
2023/01/19 02:56:36;;;;;;;14.85;11.00;;;2.60;99.90;;;;;;5032522;28;20528;-79
2023/01/19 02:59:04;;;;;;;13.77;9.50;;;2.60;99.90;;;;;;5033754;28;20028;-79
2023/01/19 03:02:08;;;;;;;13.20;9.57;;;2.60;99.90;;;;;;5032310;28;20044;-79
2023/01/19 03:04:48;;;;;;;12.35;8.65;;;2.60;99.90;;;;;;5031781;28;20041;-79
2023/01/19 03:07:26;;;;;;;12.55;8.45;;;2.50;99.90;;;;;;5032092;28;20029;-78
2023/01/19 03:10:11;;;;;;;11.32;8.60;;;2.50;99.90;;;;;;5032700;28;20029;-79
2023/01/19 03:12:49;;;;;;;8.35;7.15;;;2.50;99.90;;;;;;5033676;28;20026;-79
2023/01/19 03:15:27;;;;;;;8.18;6.70;;;2.50;99.90;;;;;;5032988;28;20036;-79
2023/01/19 03:17:54;;;;;;;9.15;7.60;;;2.50;99.90;;;;;;5033299;28;20034;-79
2023/01/19 03:20:24;;;;;;;10.40;7.53;;;2.50;99.90;;;;;;5033180;28;20077;-79
2023/01/19 03:22:56;;;;;;;7.45;6.53;;;2.50;99.90;;;;;;5033455;28;20025;-80
2023/01/19 03:25:23;;;;;;;9.00;7.32;;;2.50;99.90;;;;;;5033265;28;20075;-79
2023/01/19 03:27:51;;;;;;;8.13;5.93;;;2.50;99.90;;;;;;5032111;28;20068;-79
2023/01/19 03:30:22;;;;;;;9.35;6.35;;;2.60;99.90;;;;;;5038037;28;20041;-78
2023/01/19 03:32:55;;;;;;;7.63;5.60;;;2.60;99.90;;;;;;5037767;28;20537;-79
2023/01/19 03:35:24;;;;;;;5.63;4.60;;;2.60;99.90;;;;;;5037373;28;20104;-79
2023/01/19 03:37:53;;;;;;;6.80;4.60;;;2.60;99.90;;;;;;5036059;28;20037;-78
2023/01/19 03:40:19;;;;;;;3.78;3.33;;;2.60;99.90;;;;;;5037003;28;20025;-80
2023/01/19 03:42:47;;;;;;;3.40;2.95;;;2.60;99.90;;;;;;5036149;28;20061;-78
2023/01/19 03:45:14;;;;;;;3.88;2.80;;;2.70;99.90;;;;;;5019868;28;20036;-78
2023/01/19 03:47:40;;;;;;;3.60;2.53;;;2.70;99.90;;;;;;5036415;28;20040;-78
2023/01/19 03:50:12;;;;;;;3.13;1.70;;;2.70;99.90;;;;;;5037188;28;20025;-78
2023/01/19 03:52:38;;;;;;;2.70;1.35;;;2.70;99.90;;;;;;5037185;28;20029;-78
2023/01/19 03:55:05;;;;;;;4.95;1.10;;;2.80;99.90;;;;;;5019346;28;20401;-78
2023/01/19 03:57:31;;;;;;;4.32;1.10;;;2.80;99.90;;;;;;5036797;28;20026;-78
2023/01/19 03:59:56;;;;;;;2.20;0.80;;;2.80;99.90;;;;;;5035693;28;20038;-78
2023/01/19 04:02:23;;;;;;;3.38;0.60;;;2.90;99.90;;;;;;5036956;28;20072;-78
2023/01/19 04:04:49;;;;;;;2.05;0.60;;;2.90;99.90;;;;;;5035577;28;20084;-78
2023/01/19 04:07:15;;;;;;;0.93;0.32;;;2.90;99.90;;;;;;5035350;28;20021;-79
2023/01/19 04:09:46;;;;;;;3.05;0.73;;;3.00;99.90;;;;;;5019095;28;20030;-79
2023/01/19 04:12:11;;;;;;;3.25;0.40;;;3.00;99.90;;;;;;5003870;28;20545;-79
2023/01/19 04:14:37;;;;;;;2.78;0.40;;;3.10;99.90;;;;;;5035412;28;20124;-79
2023/01/19 04:17:03;;;;;;;2.65;0.40;;;3.10;99.90;;;;;;5035454;28;20029;-79
2023/01/19 04:19:28;;;;;;;4.25;0.57;;;3.10;99.90;;;;;;5019079;28;20120;-79
2023/01/19 04:21:54;;;;;;;2.10;0.30;;;3.20;99.90;;;;;;5035129;28;20060;-79
2023/01/19 04:24:20;;;;;;;2.42;0.28;;;3.20;99.90;;;;;;5002530;28;20038;-80
2023/01/19 04:26:46;;;;;;;1.92;0.28;;;3.20;99.90;;;;;;5036144;28;20481;-80
2023/01/19 04:29:13;;;;;;;0.47;0.20;;;3.20;99.90;;;;;;5019247;28;20037;-78
2023/01/19 04:31:38;;;;;;;2.10;0.28;;;3.20;99.90;;;;;;5018932;28;20465;-79
2023/01/19 04:34:04;;;;;;;1.55;0.10;;;3.20;99.90;;;;;;5036247;28;20068;-80
2023/01/19 04:36:30;;;;;;;1.92;0.20;;;3.20;99.90;;;;;;5035032;28;20107;-79
2023/01/19 04:38:55;;;;;;;0.70;0.10;;;3.20;99.90;;;;;;5035989;28;20467;-79
2023/01/19 04:41:21;;;;;;;0.80;0.20;;;3.10;99.90;;;;;;5018438;28;20045;-79
2023/01/19 04:43:47;;;;;;;0.65;0.25;;;3.10;99.90;;;;;;5034916;28;20041;-79
2023/01/19 04:46:13;;;;;;;2.03;0.28;;;3.00;99.90;;;;;;5035132;28;20055;-79
2023/01/19 04:48:39;;;;;;;0.82;0.15;;;2.90;99.90;;;;;;5036115;28;20088;-81
2023/01/19 04:51:05;;;;;;;0.98;0.60;;;3.00;99.90;;;;;;5018781;28;20037;-79
2023/01/19 04:53:30;;;;;;;2.65;0.57;;;3.00;99.90;;;;;;5001935;28;20125;-80
2023/01/19 04:55:58;;;;;;;2.58;0.70;;;3.10;99.90;;;;;;5035187;28;20057;-81
2023/01/19 04:58:24;;;;;;;1.92;0.98;;;3.20;99.90;;;;;;5034811;28;20037;-81
2023/01/19 05:00:50;;;;;;;3.65;0.90;;;3.20;99.90;;;;;;5034479;28;20064;-80
2023/01/19 05:03:18;;;;;;;4.63;0.80;;;3.20;99.90;;;;;;5034462;28;20124;-81
2023/01/19 05:05:43;;;;;;;1.80;1.10;;;3.20;99.90;;;;;;5034754;28;20026;-81
2023/01/19 05:08:09;;;;;;;2.42;1.10;;;3.20;99.90;;;;;;5034830;28;20103;-81
2023/01/19 05:10:35;;;;;;;4.05;1.02;;;3.30;99.90;;;;;;5001725;28;20068;-81
2023/01/19 05:13:01;;;;;;;2.72;1.30;;;3.30;99.90;;;;;;5017881;28;20112;-81
2023/01/19 05:15:26;;;;;;;2.60;1.25;;;3.30;99.90;;;;;;5017943;28;20076;-81
2023/01/19 05:17:52;;;;;;;2.45;1.40;;;3.30;99.90;;;;;;5001522;28;20394;-81
2023/01/19 05:20:18;;;;;;;5.57;1.45;;;3.30;99.90;;;;;;5034322;28;20042;-80
2023/01/19 05:22:53;;;;;;;4.93;1.27;;;3.30;99.90;;;;;;5017327;28;20048;-80
2023/01/19 05:25:18;;;;;;;2.45;1.42;;;3.30;99.90;;;;;;5034170;28;20501;-81
2023/01/19 05:27:44;;;;;;;2.20;0.90;;;3.30;99.90;;;;;;5035346;28;20026;-80
2023/01/19 05:30:12;;;;;;;4.20;0.80;;;3.30;99.90;;;;;;5034850;28;20029;-79
2023/01/19 05:32:37;;;;;;;3.53;0.95;;;3.30;99.90;;;;;;5035037;28;20030;-80
2023/01/19 05:35:03;;;;;;;1.88;0.80;;;3.30;99.90;;;;;;5033744;28;20083;-80
2023/01/19 05:37:31;;;;;;;2.95;0.95;;;3.30;99.90;;;;;;5017666;28;20370;-80
2023/01/19 05:39:57;;;;;;;5.53;0.70;;;3.30;99.90;;;;;;5017420;28;20045;-80
2023/01/19 05:42:22;;;;;;;4.72;0.70;;;3.30;99.90;;;;;;5033745;28;20037;-80
2023/01/19 05:44:48;;;;;;;3.90;0.50;;;3.30;99.90;;;;;;5033989;28;20064;-78
2023/01/19 05:47:13;;;;;;;3.97;0.47;;;3.30;99.90;;;;;;5016828;28;20057;-80
2023/01/19 05:49:39;;;;;;;6.40;0.75;;;3.30;99.90;;;;;;5016786;28;20044;-79
2023/01/19 05:52:05;;;;;;;6.88;0.50;;;3.30;99.90;;;;;;5032861;28;20030;-79
2023/01/19 05:54:31;;;;;;;3.95;0.45;;;3.30;99.90;;;;;;5017708;28;20029;-81
2023/01/19 05:56:57;;;;;;;6.95;0.70;;;3.30;99.90;;;;;;5033911;28;20379;-80
2023/01/19 05:59:23;;;;;;;4.80;0.57;;;3.30;99.90;;;;;;5034110;28;20497;-79
2023/01/19 06:01:52;;;;;;;5.57;0.47;;;3.40;99.90;;;;;;5016731;28;20041;-78
2023/01/19 06:04:19;;;;;;;5.60;0.47;;;3.40;99.90;;;;;;5033366;28;20113;-79
2023/01/19 06:06:49;;;;;;;6.47;0.45;;;3.40;99.90;;;;;;5033039;28;20022;-78
2023/01/19 06:09:18;;;;;;;4.78;0.50;;;3.40;99.90;;;;;;5033401;28;20030;-78
2023/01/19 06:11:45;;;;;;;5.53;0.40;;;3.50;99.90;;;;;;5034871;28;20438;-79
2023/01/19 06:14:11;;;;;;;5.10;0.73;;;3.50;99.90;;;;;;5033984;28;20033;-79
2023/01/19 06:16:37;;;;;;;5.15;0.45;;;3.50;99.90;;;;;;5034378;28;20438;-79
2023/01/19 06:19:03;;;;;;;2.67;0.77;;;3.50;99.90;;;;;;5034657;28;20493;-78
2023/01/19 06:21:29;;;;;;;10.90;0.60;;;3.50;99.90;;;;;;5016682;28;20069;-79
2023/01/19 06:23:55;;;;;;;4.78;0.52;;;3.50;99.90;;;;;;5032814;28;20116;-80
2023/01/19 06:26:20;;;;;;;8.07;0.90;;;3.50;99.90;;;;;;5033332;28;20061;-79
2023/01/19 06:28:47;;;;;;;6.47;1.10;;;3.50;99.90;;;;;;5033067;28;20470;-79
2023/01/19 06:31:13;;;;;;;10.23;1.00;;;3.50;99.90;;;;;;5017273;28;20124;-80
2023/01/19 06:33:38;;;;;;;8.40;1.02;;;3.50;99.90;;;;;;5016878;28;20124;-80
2023/01/19 06:36:04;;;;;;;4.32;0.80;;;3.60;99.90;;;;;;5032496;28;20072;-80
2023/01/19 06:38:31;;;;;;;13.90;0.75;;;3.60;99.90;;;;;;5033475;28;20080;-79
2023/01/19 06:40:57;;;;;;;10.82;1.08;;;3.60;99.90;;;;;;5017039;28;20470;-82
2023/01/19 06:43:23;;;;;;;13.27;1.05;;;3.60;99.90;;;;;;5034438;28;20033;-80
2023/01/19 06:45:50;;;;;;;8.23;0.70;;;3.60;99.90;;;;;;5032563;28;20050;-80
2023/01/19 06:48:16;;;;;;;12.93;1.17;;;3.70;99.90;;;;;;5016659;28;20382;-80
2023/01/19 06:50:44;;;;;;;11.80;0.88;;;3.70;99.90;;;;;;5016171;28;20034;-79
2023/01/19 06:53:10;;;;;;;5.63;0.68;;;3.70;99.90;;;;;;5016109;28;20120;-84
2023/01/19 06:55:36;;;;;;;9.00;1.27;;;3.70;99.90;;;;;;5033334;28;20100;-82
2023/01/19 06:58:02;;;;;;;14.88;1.33;;;3.70;99.90;;;;;;4999686;28;20529;-82
2023/01/19 07:00:27;;;;;;;14.13;1.60;;;3.70;99.90;;;;;;5032331;28;20048;-81
2023/01/19 07:02:53;;;;;;;11.90;2.00;;;3.80;99.90;;;;;;5034002;28;20366;-81
2023/01/19 07:05:20;;;;;;;10.88;1.20;;;3.70;99.90;;;;;;5032606;28;20034;-81
2023/01/19 07:07:53;;;;;;;9.25;1.27;;;3.70;99.90;;;;;;5016834;28;20036;-75
2023/01/19 07:10:20;;;;;;;10.73;1.25;;;3.70;99.90;;;;;;5033840;28;20036;-75
2023/01/19 07:12:46;;;;;;;9.70;1.35;;;3.70;99.90;;;;;;5015798;28;20037;-75
2023/01/19 07:15:13;;;;;;;7.65;1.20;;;3.70;99.90;;;;;;5015680;28;20030;-84
2023/01/19 07:17:40;;;;;;;12.35;1.10;;;3.70;99.90;;;;;;5032555;28;20485;-83
2023/01/19 07:20:13;;;;;;;12.40;2.28;;;3.70;99.90;;;;;;5016648;28;20058;-85
2023/01/19 07:22:39;;;;;;;12.35;1.25;;;3.70;99.90;;;;;;5017867;28;20113;-84
2023/01/19 07:25:05;;;;;;;9.48;1.88;;;3.70;99.90;;;;;;5016016;28;20390;-80
2023/01/19 07:27:31;;;;;;;9.25;1.20;;;3.80;99.90;;;;;;5032836;28;20029;-77
2023/01/19 07:29:57;;;;;;;9.52;1.52;;;3.80;99.90;;;;;;5032198;28;20393;-86
2023/01/19 07:32:22;;;;;;;10.45;1.40;;;3.90;99.90;;;;;;5016613;28;20056;-82
2023/01/19 07:34:48;;;;;;;10.18;1.83;;;3.90;99.90;;;;;;5035491;28;20033;-82
2023/01/19 07:37:14;;;;;;;8.05;1.55;;;4.00;99.90;;;;;;5032492;28;20033;-73
2023/01/19 07:39:39;;;;;;;16.60;2.53;;;4.00;99.90;;;;;;5032168;28;20455;-76
2023/01/19 07:42:05;;;;;;;10.07;2.03;;;4.00;99.90;;;;;;5014979;28;20430;-76
2023/01/19 07:44:31;;;;;;;12.25;2.60;;;4.10;99.90;;;;;;5031582;28;20091;-75
2023/01/19 07:47:06;;;;;;;11.48;2.83;;;4.10;99.90;;;;;;5033446;28;20140;-75
2023/01/19 07:49:32;;;;;;;12.73;3.10;;;4.10;99.90;;;;;;5016364;28;20037;-76
2023/01/19 07:51:57;;;;;;;9.13;2.00;;;4.00;99.90;;;;;;5032312;28;20033;-75
2023/01/19 07:54:23;;;;;;;9.18;2.17;;;4.10;99.90;;;;;;5032383;28;20065;-78
2023/01/19 07:56:51;;;;;;;9.00;1.85;;;4.10;99.90;;;;;;4998922;28;20033;-76
2023/01/19 07:59:17;;;;;;;8.32;1.75;;;4.10;99.90;;;;;;5015812;28;20120;-77
2023/01/19 08:01:43;;;;;;;10.93;2.40;;;4.10;99.90;;;;;;4999102;28;20124;-77
2023/01/19 08:04:09;;;;;;;10.55;2.00;;;4.10;99.90;;;;;;5015513;28;20037;-75
2023/01/19 08:06:37;;;;;;;8.90;1.70;;;4.10;99.90;;;;;;5015427;28;20104;-75
2023/01/19 08:09:26;;;;;;;6.25;1.77;;;4.10;99.90;;;;;;5031989;28;20030;-75
2023/01/19 08:11:51;;;;;;;12.90;2.33;;;4.10;99.90;;;;;;5031434;28;20029;-75
2023/01/19 08:14:17;;;;;;;8.88;2.20;;;4.10;99.90;;;;;;5016001;28;20359;-75
2023/01/19 08:16:43;;;;;;;8.05;1.90;;;4.10;99.90;;;;;;5019074;28;20452;-76
2023/01/19 08:19:08;;;;;;;8.18;1.70;;;4.10;99.90;;;;;;5036555;28;20381;-76
2023/01/19 08:21:35;;;;;;;11.32;2.08;;;4.20;99.90;;;;;;5036765;28;20425;-76
2023/01/19 08:24:01;;;;;;;9.85;2.22;;;4.20;99.90;;;;;;5035302;28;20466;-76
2023/01/19 08:26:30;;;;;;;9.02;2.08;;;4.30;99.90;;;;;;5035047;28;20056;-76
2023/01/19 08:28:58;;;;;;;12.50;2.42;;;4.30;99.90;;;;;;5035050;28;20017;-76
2023/01/19 08:31:25;;;;;;;10.18;2.38;;;4.30;99.90;;;;;;5035199;28;20048;-76
2023/01/19 08:33:51;;;;;;;10.07;2.10;;;4.30;99.90;;;;;;5036784;28;20467;-77
2023/01/19 08:36:16;;;;;;;9.18;2.65;;;4.30;99.90;;;;;;5034802;28;20030;-76
2023/01/19 08:38:44;;;;;;;10.95;3.25;;;4.30;99.90;;;;;;5018515;28;20488;-76
2023/01/19 08:41:10;;;;;;;14.73;3.67;;;4.40;99.90;;;;;;5034690;28;20037;-76
2023/01/19 08:43:36;;;;;;;14.00;3.65;;;4.30;99.90;;;;;;5001961;28;20033;-81
2023/01/19 08:46:03;;;;;;;11.20;3.58;;;4.30;99.90;;;;;;5035742;28;20524;-77
2023/01/19 08:48:30;;;;;;;17.23;3.83;;;4.30;99.90;;;;;;5034885;28;20053;-78
2023/01/19 08:50:56;;;;;;;13.13;4.78;;;4.30;99.90;;;;;;5034374;28;20037;-77
2023/01/19 08:53:22;;;;;;;14.02;4.07;;;4.40;99.90;;;;;;5035093;28;20036;-76
2023/01/19 08:55:48;;;;;;;11.80;4.47;;;4.40;99.90;;;;;;5017885;28;20355;-77
2023/01/19 08:58:14;;;;;;;10.45;4.47;;;4.50;99.90;;;;;;5018591;28;20049;-75
2023/01/19 09:00:40;;;;;;;15.10;5.13;;;4.50;99.90;;;;;;5034060;28;20080;-75
2023/01/19 09:03:11;;;;;;;14.07;5.32;;;4.50;99.90;;;;;;5035718;28;20041;-74
2023/01/19 09:05:38;;;;;;;13.15;4.90;;;4.60;99.90;;;;;;5035133;28;20022;-75
2023/01/19 09:08:07;;;;;;;17.55;4.55;;;4.70;99.90;;;;;;5035434;28;20497;-75
2023/01/19 09:10:36;;;;;;;12.38;4.80;;;4.70;99.90;;;;;;5035614;28;20029;-75
2023/01/19 09:13:09;;;;;;;16.83;4.90;;;4.80;99.90;;;;;;5034437;28;20417;-75
2023/01/19 09:15:36;;;;;;;11.23;4.45;;;4.90;99.90;;;;;;5034336;28;20116;-75
2023/01/19 09:18:03;;;;;;;15.60;5.00;;;5.10;99.90;;;;;;5033885;28;20128;-76
2023/01/19 09:20:30;;;;;;;14.93;5.20;;;5.20;99.90;;;;;;5034766;28;20092;-75
2023/01/19 09:22:59;;;;;;;16.92;5.05;;;5.30;99.90;;;;;;5017707;28;20029;-75
2023/01/19 09:25:25;;;;;;;15.32;4.78;;;5.40;99.90;;;;;;5034945;28;20052;-75
2023/01/19 09:27:51;;;;;;;16.23;4.82;;;5.50;99.90;;;;;;5034788;28;20489;-76
2023/01/19 09:30:18;;;;;;;14.07;4.35;;;5.50;99.90;;;;;;5033926;28;20529;-75
2023/01/19 09:32:44;;;;;;;16.98;5.45;;;5.60;99.90;;;;;;5017955;28;20382;-75
2023/01/19 09:35:10;;;;;;;11.48;3.95;;;5.70;99.90;;;;;;5034743;28;20040;-75
2023/01/19 09:37:35;;;;;;;13.80;4.20;;;5.70;99.90;;;;;;5018059;28;20037;-79
2023/01/19 09:40:02;;;;;;;17.02;4.13;;;5.80;99.90;;;;;;5034440;28;20056;-75
2023/01/19 09:42:50;;;;;;;19.13;5.35;;;5.80;99.90;;;;;;5018017;28;20053;-75
2023/01/19 09:45:38;;;;;;;13.15;4.15;;;5.90;99.90;;;;;;5034223;28;20030;-75
2023/01/19 09:48:25;;;;;;;17.10;4.00;;;5.90;99.90;;;;;;5035440;28;20029;-76
2023/01/19 09:50:54;;;;;;;16.55;4.05;;;6.00;99.90;;;;;;5033584;28;20082;-76
2023/01/19 09:53:33;;;;;;;13.13;2.95;;;6.00;99.90;;;;;;5033090;28;20025;-74
2023/01/19 09:55:59;;;;;;;14.95;2.60;;;6.00;99.90;;;;;;5033833;28;20183;-76
2023/01/19 09:58:25;;;;;;;16.65;3.10;;;6.10;99.90;;;;;;5017955;28;20053;-75
2023/01/19 10:01:01;;;;;;;15.63;2.92;;;6.10;99.90;;;;;;5033347;28;20387;-76
2023/01/19 10:03:27;;;;;;;9.68;2.40;;;6.10;99.90;;;;;;5034948;28;20033;-76
2023/01/19 10:06:02;;;;;;;13.15;1.90;;;6.10;99.90;;;;;;5032699;28;20034;-76
2023/01/19 10:08:36;;;;;;;10.60;2.30;;;6.20;99.90;;;;;;5033255;28;20029;-75
2023/01/19 10:11:03;;;;;;;11.75;2.17;;;6.20;99.90;;;;;;5033508;28;20415;-76
2023/01/19 10:13:28;;;;;;;11.50;2.15;;;6.30;99.90;;;;;;5016804;28;20492;-75
2023/01/19 10:16:19;;;;;;;14.90;1.90;;;6.20;99.90;;;;;;5033642;28;20029;-76
2023/01/19 10:18:50;;;;;;;21.08;3.03;;;6.30;99.90;;;;;;5033568;28;20461;-77
2023/01/19 10:21:37;;;;;;;26.00;2.55;;;6.30;99.90;;;;;;5034488;28;20022;-76
2023/01/19 10:24:32;;;;;;;28.35;3.03;;;6.20;99.90;;;;;;5033510;28;20534;-76
2023/01/19 10:26:57;;;;;;;28.08;2.65;;;6.10;99.90;;;;;;5034543;28;20152;-75
2023/01/19 10:29:41;;;;;;;12.95;1.65;;;6.20;99.90;;;;;;5034522;28;20053;-76
2023/01/19 10:32:21;;;;;;;14.50;2.38;;;6.30;99.90;;;;;;5034183;28;20025;-76
2023/01/19 10:34:48;;;;;;;12.98;1.40;;;6.40;99.90;;;;;;5034223;28;20442;-76
2023/01/19 10:37:29;;;;;;;11.35;1.27;;;6.50;99.90;;;;;;5034051;28;20025;-79
2023/01/19 10:40:10;;;;;;;13.73;2.15;;;6.50;99.90;;;;;;5032233;28;20033;-76
2023/01/19 10:42:38;;;;;;;18.08;1.98;;;6.50;99.90;;;;;;5033408;28;20109;-76
2023/01/19 10:45:17;;;;;;;11.50;1.92;;;6.60;99.90;;;;;;5032752;28;20060;-77
2023/01/19 10:47:45;;;;;;;12.20;1.63;;;6.50;99.90;;;;;;5016243;28;20029;-79
2023/01/19 10:50:27;;;;;;;12.88;1.65;;;6.50;99.90;;;;;;5033660;28;20029;-76
2023/01/19 10:52:56;;;;;;;16.08;2.95;;;6.50;99.90;;;;;;5032939;28;20025;-74
2023/01/19 10:55:30;;;;;;;19.42;3.72;;;6.60;99.90;;;;;;5016321;28;20053;-73
2023/01/19 10:57:57;;;;;;;19.63;3.47;;;6.70;99.90;;;;;;5032792;28;20455;-74
2023/01/19 11:00:36;;;;;;;14.63;3.63;;;6.80;99.90;;;;;;5033586;28;20083;-73
2023/01/19 11:03:03;;;;;;;18.67;3.92;;;6.80;99.90;;;;;;5033352;28;20033;-77
2023/01/19 11:05:31;;;;;;;15.75;3.75;;;6.90;99.90;;;;;;5035013;28;20480;-75
2023/01/19 11:07:57;;;;;;;19.80;4.00;;;7.00;99.90;;;;;;5032868;28;20022;-77
2023/01/19 11:10:25;;;;;;;12.90;3.60;;;7.00;99.90;;;;;;5015463;28;20124;-78
2023/01/19 11:13:11;;;;;;;20.23;4.28;;;7.10;99.90;;;;;;5033585;28;20021;-76
2023/01/19 11:15:58;;;;;;;14.45;3.42;;;7.20;99.90;;;;;;5032637;28;20045;-77
2023/01/19 11:18:29;;;;;;;14.20;3.65;;;7.10;99.90;;;;;;5033397;28;20366;-79
2023/01/19 11:21:00;;;;;;;18.08;3.65;;;7.10;99.90;;;;;;5032441;28;20033;-80
2023/01/19 11:23:27;;;;;;;13.98;3.60;;;7.20;99.90;;;;;;5031827;28;20093;-77
2023/01/19 11:25:57;;;;;;;17.35;4.90;;;7.20;99.90;;;;;;5032005;28;20032;-77
2023/01/19 11:28:35;;;;;;;18.08;5.35;;;7.20;99.90;;;;;;5031586;28;20120;-77
2023/01/19 11:31:09;;;;;;;20.05;5.45;;;7.10;99.90;;;;;;5032763;28;20037;-77
2023/01/19 11:33:40;;;;;;;17.85;3.50;;;7.10;99.90;;;;;;5033087;28;20018;-78
2023/01/19 11:36:26;;;;;;;15.18;4.15;;;7.10;99.90;;;;;;5031824;28;20032;-75
2023/01/19 11:38:58;;;;;;;15.73;4.40;;;7.20;99.90;;;;;;5033363;28;20041;-76
2023/01/19 11:41:36;;;;;;;13.30;4.25;;;7.30;99.90;;;;;;5031601;28;20025;-76
2023/01/19 11:44:15;;;;;;;22.15;5.22;;;7.30;99.90;;;;;;5032663;28;20026;-77
2023/01/19 11:46:45;;;;;;;17.20;6.55;;;7.40;99.90;;;;;;5031663;28;20588;-75
2023/01/19 11:49:18;;;;;;;21.80;6.60;;;7.40;99.90;;;;;;5033837;28;20032;-78
2023/01/19 11:52:19;;;;;;;18.00;5.40;;;7.40;99.90;;;;;;5036303;28;20399;-78
2023/01/19 11:54:53;;;;;;;21.77;5.53;;;7.40;99.90;;;;;;5035827;28;20038;-78
2023/01/19 11:57:19;;;;;;;16.60;5.70;;;7.40;99.90;;;;;;5036212;28;20025;-78
2023/01/19 11:59:45;;;;;;;18.10;6.47;;;7.50;99.90;;;;;;5019278;28;20029;-78
2023/01/19 12:02:36;;;;;;;15.25;5.45;;;7.50;99.90;;;;;;5036443;28;20041;-78
2023/01/19 12:05:06;;;;;;;19.10;6.32;;;7.40;99.90;;;;;;5037105;28;20056;-78
2023/01/19 12:07:35;;;;;;;16.85;5.82;;;7.30;99.90;;;;;;5037719;28;20040;-79
2023/01/19 12:10:28;;;;;;;19.67;7.28;;;7.40;99.90;;;;;;5035882;28;20026;-78
2023/01/19 12:12:56;;;;;;;16.40;6.78;;;7.40;99.90;;;;;;5032726;28;20034;-78
2023/01/19 12:15:27;;;;;;;15.80;7.38;;;7.30;99.90;;;;;;5035279;28;20478;-78
2023/01/19 12:17:57;;;;;;;18.52;6.60;;;7.30;99.90;;;;;;5036099;28;20083;-78
2023/01/19 12:20:26;;;;;;;16.55;6.20;;;7.40;99.90;;;;;;5036518;28;20029;-78
2023/01/19 12:23:16;;;;;;;14.35;5.80;;;7.40;99.90;;;;;;5035330;28;20029;-78
2023/01/19 12:26:15;;;;;;;18.33;5.47;;;7.30;99.90;;;;;;5035289;28;20029;-78
2023/01/19 12:28:46;;;;;;;20.73;5.53;;;7.50;99.90;;;;;;5035186;28;20026;-78
2023/01/19 12:31:16;;;;;;;14.55;4.80;;;7.50;99.90;;;;;;5019194;28;20033;-78
2023/01/19 12:33:41;;;;;;;16.85;4.70;;;7.50;99.90;;;;;;5036519;28;20029;-78
2023/01/19 12:36:25;;;;;;;16.30;5.03;;;7.50;99.90;;;;;;5035176;28;20360;-77
2023/01/19 12:39:13;;;;;;;13.75;5.18;;;7.50;99.90;;;;;;5035307;28;20478;-78
2023/01/19 12:41:39;;;;;;;13.13;4.93;;;7.50;99.90;;;;;;5035474;28;20033;-78
2023/01/19 12:44:15;;;;;;;14.40;4.57;;;7.60;99.90;;;;;;5036053;28;20108;-77
2023/01/19 12:46:49;;;;;;;12.55;4.57;;;7.60;99.90;;;;;;5034748;28;20041;-78
2023/01/19 12:49:38;;;;;;;15.27;4.70;;;7.60;99.90;;;;;;5036667;28;20474;-78
2023/01/19 12:52:22;;;;;;;12.70;4.32;;;7.60;99.90;;;;;;5036179;28;20028;-79
2023/01/19 12:55:14;;;;;;;18.00;4.53;;;7.70;99.90;;;;;;5035183;28;20033;-78
2023/01/19 12:57:55;;;;;;;15.82;4.88;;;7.70;99.90;;;;;;5034477;28;20060;-76
2023/01/19 13:00:20;;;;;;;20.25;4.88;;;7.70;99.90;;;;;;5035592;28;20029;-77
2023/01/19 13:02:48;;;;;;;11.32;4.03;;;7.60;99.90;;;;;;5035963;28;20112;-77
2023/01/19 13:05:43;;;;;;;14.10;4.13;;;7.50;99.90;;;;;;5035048;28;20067;-77
2023/01/19 13:08:09;;;;;;;15.80;4.00;;;7.40;99.90;;;;;;5034260;28;20026;-76
2023/01/19 13:10:58;;;;;;;14.40;3.53;;;7.40;99.90;;;;;;5036212;28;20036;-76
2023/01/19 13:13:38;;;;;;;14.57;3.40;;;7.30;99.90;;;;;;5035601;28;20343;-77